sensor_id;sensor_type;location;lat;lon;timestamp;P1;durP1;ratioP1;P2;durP2;ratioP2
12467;SDS011;57850;52.922;6.256;2023-07-09T00:01:50;9.68;;;8.35;;
12467;SDS011;57850;52.922;6.256;2023-07-09T00:04:17;9.77;;;7.97;;
12467;SDS011;57850;52.922;6.256;2023-07-09T00:06:44;13.75;;;8.02;;
12467;SDS011;57850;52.922;6.256;2023-07-09T00:09:12;10.27;;;8.65;;
12467;SDS011;57850;52.922;6.256;2023-07-09T00:11:40;13.73;;;8.40;;
12467;SDS011;57850;52.922;6.256;2023-07-09T00:14:09;14.88;;;8.10;;
12467;SDS011;57850;52.922;6.256;2023-07-09T00:16:38;13.43;;;8.43;;
12467;SDS011;57850;52.922;6.256;2023-07-09T00:19:09;11.27;;;7.53;;
12467;SDS011;57850;52.922;6.256;2023-07-09T00:21:38;12.90;;;8.50;;
12467;SDS011;57850;52.922;6.256;2023-07-09T00:24:05;9.27;;;7.85;;
12467;SDS011;57850;52.922;6.256;2023-07-09T00:26:32;10.73;;;8.35;;
12467;SDS011;57850;52.922;6.256;2023-07-09T00:29:00;13.70;;;8.57;;
12467;SDS011;57850;52.922;6.256;2023-07-09T00:31:29;10.00;;;8.32;;
12467;SDS011;57850;52.922;6.256;2023-07-09T00:33:56;11.55;;;8.50;;
12467;SDS011;57850;52.922;6.256;2023-07-09T00:36:26;13.40;;;8.13;;
12467;SDS011;57850;52.922;6.256;2023-07-09T00:38:56;11.45;;;8.10;;
12467;SDS011;57850;52.922;6.256;2023-07-09T00:41:26;10.40;;;8.43;;
12467;SDS011;57850;52.922;6.256;2023-07-09T00:43:53;9.60;;;8.05;;
12467;SDS011;57850;52.922;6.256;2023-07-09T00:49:28;12.82;;;7.85;;
12467;SDS011;57850;52.922;6.256;2023-07-09T00:51:58;12.82;;;8.50;;
12467;SDS011;57850;52.922;6.256;2023-07-09T00:54:28;11.80;;;8.48;;
12467;SDS011;57850;52.922;6.256;2023-07-09T00:56:59;10.75;;;8.80;;
12467;SDS011;57850;52.922;6.256;2023-07-09T00:59:31;9.63;;;8.13;;
12467;SDS011;57850;52.922;6.256;2023-07-09T01:01:59;8.98;;;7.93;;
12467;SDS011;57850;52.922;6.256;2023-07-09T01:04:27;10.05;;;8.50;;
12467;SDS011;57850;52.922;6.256;2023-07-09T01:06:55;13.05;;;8.63;;
12467;SDS011;57850;52.922;6.256;2023-07-09T01:09:23;10.18;;;7.72;;
12467;SDS011;57850;52.922;6.256;2023-07-09T01:11:50;9.30;;;7.68;;
12467;SDS011;57850;52.922;6.256;2023-07-09T01:14:21;12.00;;;8.50;;
12467;SDS011;57850;52.922;6.256;2023-07-09T01:16:52;17.35;;;8.13;;
12467;SDS011;57850;52.922;6.256;2023-07-09T01:19:24;13.57;;;8.40;;
12467;SDS011;57850;52.922;6.256;2023-07-09T01:21:55;10.27;;;8.00;;
12467;SDS011;57850;52.922;6.256;2023-07-09T01:27:14;10.27;;;7.63;;
12467;SDS011;57850;52.922;6.256;2023-07-09T01:29:41;10.90;;;8.90;;
12467;SDS011;57850;52.922;6.256;2023-07-09T01:32:14;12.98;;;8.80;;
12467;SDS011;57850;52.922;6.256;2023-07-09T01:34:42;10.88;;;8.27;;
12467;SDS011;57850;52.922;6.256;2023-07-09T01:37:10;11.20;;;8.10;;
12467;SDS011;57850;52.922;6.256;2023-07-09T01:39:37;10.25;;;8.38;;
12467;SDS011;57850;52.922;6.256;2023-07-09T01:42:05;13.65;;;8.30;;
12467;SDS011;57850;52.922;6.256;2023-07-09T01:44:33;12.23;;;8.40;;
12467;SDS011;57850;52.922;6.256;2023-07-09T01:47:00;11.70;;;7.95;;
12467;SDS011;57850;52.922;6.256;2023-07-09T01:49:28;10.07;;;8.43;;
12467;SDS011;57850;52.922;6.256;2023-07-09T01:51:55;12.18;;;8.88;;
12467;SDS011;57850;52.922;6.256;2023-07-09T01:54:23;12.88;;;9.00;;
12467;SDS011;57850;52.922;6.256;2023-07-09T01:56:49;12.95;;;8.95;;
12467;SDS011;57850;52.922;6.256;2023-07-09T01:59:16;13.52;;;8.75;;
12467;SDS011;57850;52.922;6.256;2023-07-09T02:01:46;15.75;;;9.70;;
12467;SDS011;57850;52.922;6.256;2023-07-09T02:04:12;11.45;;;8.75;;
12467;SDS011;57850;52.922;6.256;2023-07-09T02:06:39;11.20;;;8.75;;
12467;SDS011;57850;52.922;6.256;2023-07-09T02:09:06;13.38;;;8.82;;
12467;SDS011;57850;52.922;6.256;2023-07-09T02:11:34;15.30;;;10.40;;
12467;SDS011;57850;52.922;6.256;2023-07-09T02:14:00;11.90;;;9.20;;
12467;SDS011;57850;52.922;6.256;2023-07-09T02:16:27;13.07;;;9.00;;
12467;SDS011;57850;52.922;6.256;2023-07-09T02:18:53;13.90;;;10.05;;
12467;SDS011;57850;52.922;6.256;2023-07-09T02:21:20;11.95;;;9.00;;
12467;SDS011;57850;52.922;6.256;2023-07-09T02:23:47;11.65;;;8.95;;
12467;SDS011;57850;52.922;6.256;2023-07-09T02:26:13;10.68;;;8.82;;
12467;SDS011;57850;52.922;6.256;2023-07-09T02:28:41;10.80;;;8.82;;
12467;SDS011;57850;52.922;6.256;2023-07-09T02:31:08;10.77;;;8.50;;
12467;SDS011;57850;52.922;6.256;2023-07-09T02:33:35;9.15;;;8.15;;
12467;SDS011;57850;52.922;6.256;2023-07-09T02:36:02;10.90;;;8.77;;
12467;SDS011;57850;52.922;6.256;2023-07-09T02:38:28;9.82;;;8.80;;
12467;SDS011;57850;52.922;6.256;2023-07-09T02:40:55;12.85;;;8.38;;
12467;SDS011;57850;52.922;6.256;2023-07-09T02:43:21;12.57;;;9.02;;
12467;SDS011;57850;52.922;6.256;2023-07-09T02:45:50;13.20;;;9.20;;
12467;SDS011;57850;52.922;6.256;2023-07-09T02:48:16;11.80;;;9.32;;
12467;SDS011;57850;52.922;6.256;2023-07-09T02:50:43;10.05;;;8.95;;
12467;SDS011;57850;52.922;6.256;2023-07-09T02:53:09;12.90;;;9.35;;
12467;SDS011;57850;52.922;6.256;2023-07-09T02:55:36;11.85;;;9.10;;
12467;SDS011;57850;52.922;6.256;2023-07-09T02:58:02;10.73;;;8.73;;
12467;SDS011;57850;52.922;6.256;2023-07-09T03:00:29;13.02;;;8.55;;
12467;SDS011;57850;52.922;6.256;2023-07-09T03:02:57;9.75;;;8.68;;
12467;SDS011;57850;52.922;6.256;2023-07-09T03:05:24;10.18;;;9.00;;
12467;SDS011;57850;52.922;6.256;2023-07-09T03:07:50;11.93;;;9.13;;
12467;SDS011;57850;52.922;6.256;2023-07-09T03:10:17;12.77;;;8.48;;
12467;SDS011;57850;52.922;6.256;2023-07-09T03:12:43;10.15;;;8.82;;
12467;SDS011;57850;52.922;6.256;2023-07-09T03:15:11;10.70;;;9.30;;
12467;SDS011;57850;52.922;6.256;2023-07-09T03:17:38;11.90;;;9.00;;
12467;SDS011;57850;52.922;6.256;2023-07-09T03:20:06;9.77;;;8.43;;
12467;SDS011;57850;52.922;6.256;2023-07-09T03:22:34;12.70;;;8.98;;
12467;SDS011;57850;52.922;6.256;2023-07-09T03:25:00;9.98;;;8.75;;
12467;SDS011;57850;52.922;6.256;2023-07-09T03:27:27;11.93;;;8.90;;
12467;SDS011;57850;52.922;6.256;2023-07-09T03:29:54;12.35;;;9.05;;
12467;SDS011;57850;52.922;6.256;2023-07-09T03:32:20;11.23;;;8.23;;
12467;SDS011;57850;52.922;6.256;2023-07-09T03:34:47;11.48;;;9.23;;
12467;SDS011;57850;52.922;6.256;2023-07-09T03:37:15;13.27;;;9.15;;
12467;SDS011;57850;52.922;6.256;2023-07-09T03:39:41;10.63;;;8.90;;
12467;SDS011;57850;52.922;6.256;2023-07-09T03:42:08;12.70;;;8.45;;
12467;SDS011;57850;52.922;6.256;2023-07-09T03:44:34;12.77;;;8.70;;
12467;SDS011;57850;52.922;6.256;2023-07-09T03:47:02;10.05;;;9.02;;
12467;SDS011;57850;52.922;6.256;2023-07-09T03:49:29;12.07;;;9.55;;
12467;SDS011;57850;52.922;6.256;2023-07-09T03:51:56;9.13;;;8.02;;
12467;SDS011;57850;52.922;6.256;2023-07-09T03:54:24;12.00;;;8.88;;
12467;SDS011;57850;52.922;6.256;2023-07-09T03:56:51;12.30;;;8.23;;
12467;SDS011;57850;52.922;6.256;2023-07-09T03:59:17;12.77;;;8.63;;
12467;SDS011;57850;52.922;6.256;2023-07-09T04:01:44;12.85;;;8.43;;
12467;SDS011;57850;52.922;6.256;2023-07-09T04:04:11;10.38;;;8.25;;
12467;SDS011;57850;52.922;6.256;2023-07-09T04:06:38;10.23;;;8.10;;
12467;SDS011;57850;52.922;6.256;2023-07-09T04:09:05;11.90;;;9.40;;
12467;SDS011;57850;52.922;6.256;2023-07-09T04:11:34;12.77;;;9.07;;
12467;SDS011;57850;52.922;6.256;2023-07-09T04:14:00;10.52;;;8.60;;
12467;SDS011;57850;52.922;6.256;2023-07-09T04:16:28;12.18;;;8.43;;
12467;SDS011;57850;52.922;6.256;2023-07-09T04:18:54;12.15;;;9.05;;
12467;SDS011;57850;52.922;6.256;2023-07-09T04:21:21;11.07;;;9.27;;
12467;SDS011;57850;52.922;6.256;2023-07-09T04:23:47;11.23;;;8.88;;
12467;SDS011;57850;52.922;6.256;2023-07-09T04:26:14;10.23;;;9.00;;
12467;SDS011;57850;52.922;6.256;2023-07-09T04:28:42;14.30;;;10.20;;
12467;SDS011;57850;52.922;6.256;2023-07-09T04:31:08;10.52;;;8.73;;
12467;SDS011;57850;52.922;6.256;2023-07-09T04:33:36;11.10;;;9.73;;
12467;SDS011;57850;52.922;6.256;2023-07-09T04:36:03;11.05;;;8.48;;
12467;SDS011;57850;52.922;6.256;2023-07-09T04:38:31;12.77;;;9.13;;
12467;SDS011;57850;52.922;6.256;2023-07-09T04:40:59;13.60;;;9.70;;
12467;SDS011;57850;52.922;6.256;2023-07-09T04:43:25;19.27;;;8.80;;
12467;SDS011;57850;52.922;6.256;2023-07-09T04:45:53;13.13;;;8.73;;
12467;SDS011;57850;52.922;6.256;2023-07-09T04:48:20;11.73;;;8.90;;
12467;SDS011;57850;52.922;6.256;2023-07-09T04:50:46;14.18;;;9.45;;
12467;SDS011;57850;52.922;6.256;2023-07-09T04:53:15;14.40;;;8.88;;
12467;SDS011;57850;52.922;6.256;2023-07-09T04:55:42;10.63;;;9.02;;
12467;SDS011;57850;52.922;6.256;2023-07-09T04:58:08;13.23;;;9.40;;
12467;SDS011;57850;52.922;6.256;2023-07-09T05:00:35;12.23;;;9.63;;
12467;SDS011;57850;52.922;6.256;2023-07-09T05:03:03;10.60;;;9.05;;
12467;SDS011;57850;52.922;6.256;2023-07-09T05:05:29;12.70;;;9.23;;
12467;SDS011;57850;52.922;6.256;2023-07-09T05:07:56;11.10;;;9.10;;
12467;SDS011;57850;52.922;6.256;2023-07-09T05:10:22;11.13;;;8.93;;
12467;SDS011;57850;52.922;6.256;2023-07-09T05:12:49;12.90;;;9.80;;
12467;SDS011;57850;52.922;6.256;2023-07-09T05:15:18;13.52;;;9.95;;
12467;SDS011;57850;52.922;6.256;2023-07-09T05:17:45;14.32;;;9.48;;
12467;SDS011;57850;52.922;6.256;2023-07-09T05:20:13;13.43;;;9.93;;
12467;SDS011;57850;52.922;6.256;2023-07-09T05:22:40;10.90;;;8.80;;
12467;SDS011;57850;52.922;6.256;2023-07-09T05:25:07;11.07;;;9.07;;
12467;SDS011;57850;52.922;6.256;2023-07-09T05:27:34;10.43;;;8.52;;
12467;SDS011;57850;52.922;6.256;2023-07-09T05:30:01;14.73;;;9.32;;
12467;SDS011;57850;52.922;6.256;2023-07-09T05:32:28;10.98;;;8.60;;
12467;SDS011;57850;52.922;6.256;2023-07-09T05:34:54;11.43;;;8.82;;
12467;SDS011;57850;52.922;6.256;2023-07-09T05:37:22;11.07;;;9.73;;
12467;SDS011;57850;52.922;6.256;2023-07-09T05:39:49;13.45;;;9.35;;
12467;SDS011;57850;52.922;6.256;2023-07-09T05:42:15;13.73;;;9.65;;
12467;SDS011;57850;52.922;6.256;2023-07-09T05:44:42;16.70;;;9.75;;
12467;SDS011;57850;52.922;6.256;2023-07-09T05:47:09;10.45;;;8.80;;
12467;SDS011;57850;52.922;6.256;2023-07-09T05:49:35;12.45;;;9.25;;
12467;SDS011;57850;52.922;6.256;2023-07-09T05:52:03;12.32;;;8.90;;
12467;SDS011;57850;52.922;6.256;2023-07-09T05:54:31;12.00;;;9.40;;
12467;SDS011;57850;52.922;6.256;2023-07-09T05:56:59;10.93;;;9.20;;
12467;SDS011;57850;52.922;6.256;2023-07-09T05:59:25;16.27;;;10.20;;
12467;SDS011;57850;52.922;6.256;2023-07-09T06:01:52;10.18;;;9.00;;
12467;SDS011;57850;52.922;6.256;2023-07-09T06:04:19;11.55;;;9.82;;
12467;SDS011;57850;52.922;6.256;2023-07-09T06:06:45;14.75;;;10.25;;
12467;SDS011;57850;52.922;6.256;2023-07-09T06:09:12;12.20;;;9.50;;
12467;SDS011;57850;52.922;6.256;2023-07-09T06:11:40;17.83;;;10.43;;
12467;SDS011;57850;52.922;6.256;2023-07-09T06:14:06;14.50;;;10.23;;
12467;SDS011;57850;52.922;6.256;2023-07-09T06:16:33;13.73;;;10.85;;
12467;SDS011;57850;52.922;6.256;2023-07-09T06:18:59;11.55;;;10.02;;
12467;SDS011;57850;52.922;6.256;2023-07-09T06:21:26;13.75;;;10.02;;
12467;SDS011;57850;52.922;6.256;2023-07-09T06:23:52;13.82;;;10.32;;
12467;SDS011;57850;52.922;6.256;2023-07-09T06:26:19;12.25;;;10.90;;
12467;SDS011;57850;52.922;6.256;2023-07-09T06:28:47;12.70;;;10.60;;
12467;SDS011;57850;52.922;6.256;2023-07-09T06:31:14;14.10;;;10.85;;
12467;SDS011;57850;52.922;6.256;2023-07-09T06:33:40;13.52;;;10.48;;
12467;SDS011;57850;52.922;6.256;2023-07-09T06:36:08;13.85;;;11.68;;
12467;SDS011;57850;52.922;6.256;2023-07-09T06:38:34;13.80;;;11.35;;
12467;SDS011;57850;52.922;6.256;2023-07-09T06:41:03;14.25;;;10.98;;
12467;SDS011;57850;52.922;6.256;2023-07-09T06:43:29;15.80;;;11.55;;
12467;SDS011;57850;52.922;6.256;2023-07-09T06:45:59;14.48;;;11.63;;
12467;SDS011;57850;52.922;6.256;2023-07-09T06:48:26;13.55;;;12.10;;
12467;SDS011;57850;52.922;6.256;2023-07-09T06:50:55;16.67;;;11.30;;
12467;SDS011;57850;52.922;6.256;2023-07-09T06:53:23;14.57;;;11.27;;
12467;SDS011;57850;52.922;6.256;2023-07-09T06:55:50;11.90;;;10.63;;
12467;SDS011;57850;52.922;6.256;2023-07-09T06:58:18;15.18;;;10.45;;
12467;SDS011;57850;52.922;6.256;2023-07-09T07:00:45;15.38;;;11.50;;
12467;SDS011;57850;52.922;6.256;2023-07-09T07:03:17;14.80;;;11.65;;
12467;SDS011;57850;52.922;6.256;2023-07-09T07:05:44;16.15;;;11.88;;
12467;SDS011;57850;52.922;6.256;2023-07-09T07:08:12;14.05;;;10.95;;
12467;SDS011;57850;52.922;6.256;2023-07-09T07:10:41;15.77;;;11.18;;
12467;SDS011;57850;52.922;6.256;2023-07-09T07:13:07;15.45;;;11.52;;
12467;SDS011;57850;52.922;6.256;2023-07-09T07:15:36;13.80;;;10.82;;
12467;SDS011;57850;52.922;6.256;2023-07-09T07:18:03;12.07;;;10.73;;
12467;SDS011;57850;52.922;6.256;2023-07-09T07:20:31;15.30;;;11.43;;
12467;SDS011;57850;52.922;6.256;2023-07-09T07:22:59;14.57;;;10.90;;
12467;SDS011;57850;52.922;6.256;2023-07-09T07:25:25;14.75;;;11.55;;
12467;SDS011;57850;52.922;6.256;2023-07-09T07:27:52;16.20;;;12.18;;
12467;SDS011;57850;52.922;6.256;2023-07-09T07:30:19;14.70;;;11.70;;
12467;SDS011;57850;52.922;6.256;2023-07-09T07:32:46;13.75;;;11.13;;
12467;SDS011;57850;52.922;6.256;2023-07-09T07:35:14;14.32;;;11.18;;
12467;SDS011;57850;52.922;6.256;2023-07-09T07:37:43;13.45;;;10.48;;
12467;SDS011;57850;52.922;6.256;2023-07-09T07:40:10;17.10;;;10.93;;
12467;SDS011;57850;52.922;6.256;2023-07-09T07:42:37;14.93;;;10.38;;
12467;SDS011;57850;52.922;6.256;2023-07-09T07:45:04;15.75;;;11.00;;
12467;SDS011;57850;52.922;6.256;2023-07-09T07:47:32;12.65;;;10.38;;
12467;SDS011;57850;52.922;6.256;2023-07-09T07:49:59;15.15;;;11.15;;
12467;SDS011;57850;52.922;6.256;2023-07-09T07:52:25;12.43;;;10.32;;
12467;SDS011;57850;52.922;6.256;2023-07-09T07:54:55;14.27;;;10.68;;
12467;SDS011;57850;52.922;6.256;2023-07-09T07:57:21;16.10;;;10.52;;
12467;SDS011;57850;52.922;6.256;2023-07-09T07:59:48;13.10;;;10.95;;
12467;SDS011;57850;52.922;6.256;2023-07-09T08:02:14;16.20;;;11.82;;
12467;SDS011;57850;52.922;6.256;2023-07-09T08:04:41;14.85;;;11.00;;
12467;SDS011;57850;52.922;6.256;2023-07-09T08:07:08;14.57;;;11.20;;
12467;SDS011;57850;52.922;6.256;2023-07-09T08:09:35;14.73;;;11.52;;
12467;SDS011;57850;52.922;6.256;2023-07-09T08:12:04;15.40;;;10.18;;
12467;SDS011;57850;52.922;6.256;2023-07-09T08:14:34;15.35;;;10.65;;
12467;SDS011;57850;52.922;6.256;2023-07-09T08:17:01;13.45;;;10.85;;
12467;SDS011;57850;52.922;6.256;2023-07-09T08:19:28;14.70;;;11.35;;
12467;SDS011;57850;52.922;6.256;2023-07-09T08:21:54;15.07;;;11.10;;
12467;SDS011;57850;52.922;6.256;2023-07-09T08:24:21;12.02;;;10.82;;
12467;SDS011;57850;52.922;6.256;2023-07-09T08:26:47;14.38;;;10.77;;
12467;SDS011;57850;52.922;6.256;2023-07-09T08:29:16;13.57;;;11.52;;
12467;SDS011;57850;52.922;6.256;2023-07-09T08:31:43;16.77;;;12.43;;
12467;SDS011;57850;52.922;6.256;2023-07-09T08:34:09;17.02;;;11.60;;
12467;SDS011;57850;52.922;6.256;2023-07-09T08:36:36;18.17;;;13.13;;
12467;SDS011;57850;52.922;6.256;2023-07-09T08:39:02;15.10;;;12.45;;
12467;SDS011;57850;52.922;6.256;2023-07-09T08:41:36;22.13;;;13.88;;
12467;SDS011;57850;52.922;6.256;2023-07-09T08:44:22;20.00;;;13.68;;
12467;SDS011;57850;52.922;6.256;2023-07-09T08:47:03;15.73;;;11.60;;
12467;SDS011;57850;52.922;6.256;2023-07-09T08:49:37;18.58;;;13.93;;
12467;SDS011;57850;52.922;6.256;2023-07-09T08:52:09;18.58;;;11.90;;
12467;SDS011;57850;52.922;6.256;2023-07-09T08:54:41;16.52;;;12.50;;
12467;SDS011;57850;52.922;6.256;2023-07-09T08:57:14;21.70;;;13.15;;
12467;SDS011;57850;52.922;6.256;2023-07-09T08:59:46;19.63;;;13.40;;
12467;SDS011;57850;52.922;6.256;2023-07-09T09:02:16;14.60;;;11.90;;
12467;SDS011;57850;52.922;6.256;2023-07-09T09:04:52;18.95;;;13.82;;
12467;SDS011;57850;52.922;6.256;2023-07-09T09:07:23;17.10;;;14.02;;
12467;SDS011;57850;52.922;6.256;2023-07-09T09:10:02;13.80;;;12.27;;
12467;SDS011;57850;52.922;6.256;2023-07-09T09:12:30;15.60;;;12.48;;
12467;SDS011;57850;52.922;6.256;2023-07-09T09:15:04;15.50;;;13.05;;
12467;SDS011;57850;52.922;6.256;2023-07-09T09:17:40;25.08;;;14.60;;
12467;SDS011;57850;52.922;6.256;2023-07-09T09:20:08;17.05;;;13.48;;
12467;SDS011;57850;52.922;6.256;2023-07-09T09:22:40;20.50;;;14.35;;
12467;SDS011;57850;52.922;6.256;2023-07-09T09:25:12;14.85;;;13.20;;
12467;SDS011;57850;52.922;6.256;2023-07-09T09:27:49;21.13;;;16.70;;
12467;SDS011;57850;52.922;6.256;2023-07-09T09:30:18;18.27;;;16.30;;
12467;SDS011;57850;52.922;6.256;2023-07-09T09:32:49;17.55;;;13.27;;
12467;SDS011;57850;52.922;6.256;2023-07-09T09:35:19;16.25;;;14.23;;
12467;SDS011;57850;52.922;6.256;2023-07-09T09:37:52;17.90;;;13.82;;
12467;SDS011;57850;52.922;6.256;2023-07-09T09:40:20;16.70;;;12.88;;
12467;SDS011;57850;52.922;6.256;2023-07-09T09:42:48;17.50;;;15.13;;
12467;SDS011;57850;52.922;6.256;2023-07-09T09:45:16;21.52;;;16.20;;
12467;SDS011;57850;52.922;6.256;2023-07-09T09:47:45;17.38;;;15.63;;
12467;SDS011;57850;52.922;6.256;2023-07-09T09:50:14;15.43;;;13.25;;
12467;SDS011;57850;52.922;6.256;2023-07-09T09:52:41;16.98;;;14.40;;
12467;SDS011;57850;52.922;6.256;2023-07-09T09:55:10;16.40;;;14.55;;
12467;SDS011;57850;52.922;6.256;2023-07-09T09:57:47;16.52;;;14.82;;
12467;SDS011;57850;52.922;6.256;2023-07-09T10:00:14;16.45;;;14.15;;
12467;SDS011;57850;52.922;6.256;2023-07-09T10:02:44;15.85;;;12.73;;
12467;SDS011;57850;52.922;6.256;2023-07-09T10:05:12;16.75;;;13.57;;
12467;SDS011;57850;52.922;6.256;2023-07-09T10:07:42;14.43;;;12.90;;
12467;SDS011;57850;52.922;6.256;2023-07-09T10:10:12;14.38;;;12.82;;
12467;SDS011;57850;52.922;6.256;2023-07-09T10:12:43;14.77;;;13.00;;
12467;SDS011;57850;52.922;6.256;2023-07-09T10:15:18;14.95;;;13.00;;
12467;SDS011;57850;52.922;6.256;2023-07-09T10:17:57;13.48;;;12.07;;
12467;SDS011;57850;52.922;6.256;2023-07-09T10:20:31;13.68;;;12.25;;
12467;SDS011;57850;52.922;6.256;2023-07-09T10:23:03;14.32;;;11.98;;
12467;SDS011;57850;52.922;6.256;2023-07-09T10:25:40;13.95;;;12.43;;
12467;SDS011;57850;52.922;6.256;2023-07-09T10:28:21;14.52;;;12.95;;
12467;SDS011;57850;52.922;6.256;2023-07-09T10:31:07;13.13;;;11.88;;
12467;SDS011;57850;52.922;6.256;2023-07-09T10:33:45;12.50;;;11.20;;
12467;SDS011;57850;52.922;6.256;2023-07-09T10:36:27;17.27;;;11.93;;
12467;SDS011;57850;52.922;6.256;2023-07-09T10:39:05;12.57;;;11.38;;
12467;SDS011;57850;52.922;6.256;2023-07-09T10:41:36;16.20;;;11.00;;
12467;SDS011;57850;52.922;6.256;2023-07-09T10:44:05;15.10;;;12.35;;
12467;SDS011;57850;52.922;6.256;2023-07-09T10:46:37;18.70;;;13.98;;
12467;SDS011;57850;52.922;6.256;2023-07-09T10:49:09;13.07;;;11.73;;
12467;SDS011;57850;52.922;6.256;2023-07-09T10:51:39;11.45;;;10.27;;
12467;SDS011;57850;52.922;6.256;2023-07-09T10:54:12;13.18;;;11.77;;
12467;SDS011;57850;52.922;6.256;2023-07-09T10:56:46;11.43;;;10.00;;
12467;SDS011;57850;52.922;6.256;2023-07-09T10:59:21;12.20;;;10.68;;
12467;SDS011;57850;52.922;6.256;2023-07-09T11:01:54;12.20;;;11.00;;
12467;SDS011;57850;52.922;6.256;2023-07-09T11:04:27;15.80;;;11.05;;
12467;SDS011;57850;52.922;6.256;2023-07-09T11:07:01;12.73;;;11.45;;
12467;SDS011;57850;52.922;6.256;2023-07-09T11:09:33;14.55;;;10.98;;
12467;SDS011;57850;52.922;6.256;2023-07-09T11:12:02;12.82;;;11.52;;
12467;SDS011;57850;52.922;6.256;2023-07-09T11:14:32;12.85;;;11.52;;
12467;SDS011;57850;52.922;6.256;2023-07-09T11:17:07;12.60;;;10.88;;
12467;SDS011;57850;52.922;6.256;2023-07-09T11:19:42;13.35;;;11.40;;
12467;SDS011;57850;52.922;6.256;2023-07-09T11:22:15;15.15;;;10.75;;
12467;SDS011;57850;52.922;6.256;2023-07-09T11:24:46;12.15;;;9.75;;
12467;SDS011;57850;52.922;6.256;2023-07-09T11:27:19;10.75;;;9.73;;
12467;SDS011;57850;52.922;6.256;2023-07-09T11:29:55;14.90;;;11.23;;
12467;SDS011;57850;52.922;6.256;2023-07-09T11:32:24;12.70;;;11.18;;
12467;SDS011;57850;52.922;6.256;2023-07-09T11:34:52;14.27;;;11.63;;
12467;SDS011;57850;52.922;6.256;2023-07-09T11:37:20;13.30;;;10.82;;
12467;SDS011;57850;52.922;6.256;2023-07-09T11:39:51;11.88;;;10.45;;
12467;SDS011;57850;52.922;6.256;2023-07-09T11:42:25;11.52;;;10.38;;
12467;SDS011;57850;52.922;6.256;2023-07-09T11:44:55;11.63;;;10.32;;
12467;SDS011;57850;52.922;6.256;2023-07-09T11:47:28;11.32;;;10.23;;
12467;SDS011;57850;52.922;6.256;2023-07-09T11:50:02;10.18;;;9.18;;
12467;SDS011;57850;52.922;6.256;2023-07-09T11:52:33;10.75;;;9.65;;
12467;SDS011;57850;52.922;6.256;2023-07-09T11:55:14;10.70;;;9.70;;
12467;SDS011;57850;52.922;6.256;2023-07-09T11:57:48;12.77;;;10.00;;
12467;SDS011;57850;52.922;6.256;2023-07-09T12:00:18;11.15;;;10.05;;
12467;SDS011;57850;52.922;6.256;2023-07-09T12:02:45;10.40;;;9.35;;
12467;SDS011;57850;52.922;6.256;2023-07-09T12:05:13;11.43;;;10.20;;
12467;SDS011;57850;52.922;6.256;2023-07-09T12:07:48;11.32;;;10.32;;
12467;SDS011;57850;52.922;6.256;2023-07-09T12:10:19;11.10;;;10.05;;
12467;SDS011;57850;52.922;6.256;2023-07-09T12:12:47;10.82;;;9.73;;
12467;SDS011;57850;52.922;6.256;2023-07-09T12:15:16;15.50;;;9.68;;
12467;SDS011;57850;52.922;6.256;2023-07-09T12:17:51;10.30;;;9.13;;
12467;SDS011;57850;52.922;6.256;2023-07-09T12:20:20;10.18;;;9.18;;
12467;SDS011;57850;52.922;6.256;2023-07-09T12:22:47;9.05;;;8.13;;
12467;SDS011;57850;52.922;6.256;2023-07-09T12:25:18;10.95;;;9.82;;
12467;SDS011;57850;52.922;6.256;2023-07-09T12:27:48;12.50;;;9.25;;
12467;SDS011;57850;52.922;6.256;2023-07-09T12:30:14;9.90;;;9.00;;
12467;SDS011;57850;52.922;6.256;2023-07-09T12:32:44;11.65;;;8.63;;
12467;SDS011;57850;52.922;6.256;2023-07-09T12:35:12;10.52;;;8.23;;
12467;SDS011;57850;52.922;6.256;2023-07-09T12:37:41;9.95;;;8.95;;
12467;SDS011;57850;52.922;6.256;2023-07-09T12:40:11;11.45;;;8.48;;
12467;SDS011;57850;52.922;6.256;2023-07-09T12:42:41;8.48;;;7.50;;
12467;SDS011;57850;52.922;6.256;2023-07-09T12:45:13;8.98;;;6.95;;
12467;SDS011;57850;52.922;6.256;2023-07-09T12:47:41;8.48;;;7.45;;
12467;SDS011;57850;52.922;6.256;2023-07-09T12:50:19;9.48;;;6.68;;
12467;SDS011;57850;52.922;6.256;2023-07-09T12:52:53;10.88;;;7.28;;
12467;SDS011;57850;52.922;6.256;2023-07-09T12:55:22;7.60;;;6.90;;
12467;SDS011;57850;52.922;6.256;2023-07-09T12:57:50;7.78;;;6.95;;
12467;SDS011;57850;52.922;6.256;2023-07-09T13:00:17;10.05;;;7.47;;
12467;SDS011;57850;52.922;6.256;2023-07-09T13:02:45;8.13;;;7.35;;
12467;SDS011;57850;52.922;6.256;2023-07-09T13:05:18;10.43;;;7.30;;
12467;SDS011;57850;52.922;6.256;2023-07-09T13:07:46;8.63;;;6.68;;
12467;SDS011;57850;52.922;6.256;2023-07-09T13:10:18;9.35;;;7.80;;
12467;SDS011;57850;52.922;6.256;2023-07-09T13:12:49;11.73;;;7.57;;
12467;SDS011;57850;52.922;6.256;2023-07-09T13:15:21;9.25;;;8.40;;
12467;SDS011;57850;52.922;6.256;2023-07-09T13:17:56;12.18;;;8.18;;
12467;SDS011;57850;52.922;6.256;2023-07-09T13:20:24;11.55;;;9.50;;
12467;SDS011;57850;52.922;6.256;2023-07-09T13:22:50;10.85;;;9.18;;
12467;SDS011;57850;52.922;6.256;2023-07-09T13:25:18;10.98;;;9.48;;
12467;SDS011;57850;52.922;6.256;2023-07-09T13:27:45;10.23;;;9.18;;
12467;SDS011;57850;52.922;6.256;2023-07-09T13:30:12;9.93;;;8.95;;
12467;SDS011;57850;52.922;6.256;2023-07-09T13:32:38;10.27;;;9.18;;
12467;SDS011;57850;52.922;6.256;2023-07-09T13:35:08;11.93;;;8.50;;
12467;SDS011;57850;52.922;6.256;2023-07-09T13:37:39;9.70;;;8.32;;
12467;SDS011;57850;52.922;6.256;2023-07-09T13:40:07;10.32;;;8.05;;
12467;SDS011;57850;52.922;6.256;2023-07-09T13:42:37;11.00;;;8.82;;
12467;SDS011;57850;52.922;6.256;2023-07-09T13:45:04;11.60;;;8.85;;
12467;SDS011;57850;52.922;6.256;2023-07-09T13:47:32;12.90;;;8.95;;
12467;SDS011;57850;52.922;6.256;2023-07-09T13:50:00;9.85;;;8.13;;
12467;SDS011;57850;52.922;6.256;2023-07-09T13:52:26;14.60;;;9.00;;
12467;SDS011;57850;52.922;6.256;2023-07-09T13:54:53;9.52;;;7.68;;
12467;SDS011;57850;52.922;6.256;2023-07-09T13:57:20;9.05;;;8.15;;
12467;SDS011;57850;52.922;6.256;2023-07-09T13:59:49;8.30;;;7.47;;
12467;SDS011;57850;52.922;6.256;2023-07-09T14:02:21;10.18;;;9.00;;
12467;SDS011;57850;52.922;6.256;2023-07-09T14:04:49;10.52;;;8.57;;
12467;SDS011;57850;52.922;6.256;2023-07-09T14:07:22;11.15;;;8.13;;
12467;SDS011;57850;52.922;6.256;2023-07-09T14:09:53;10.02;;;8.30;;
12467;SDS011;57850;52.922;6.256;2023-07-09T14:12:20;9.40;;;8.50;;
12467;SDS011;57850;52.922;6.256;2023-07-09T14:14:47;8.95;;;8.10;;
12467;SDS011;57850;52.922;6.256;2023-07-09T14:17:17;11.40;;;9.32;;
12467;SDS011;57850;52.922;6.256;2023-07-09T14:19:44;11.05;;;8.70;;
12467;SDS011;57850;52.922;6.256;2023-07-09T14:22:21;10.25;;;8.25;;
12467;SDS011;57850;52.922;6.256;2023-07-09T14:24:51;9.27;;;8.45;;
12467;SDS011;57850;52.922;6.256;2023-07-09T14:27:18;9.73;;;8.73;;
12467;SDS011;57850;52.922;6.256;2023-07-09T14:29:45;10.10;;;8.75;;
12467;SDS011;57850;52.922;6.256;2023-07-09T14:32:23;14.73;;;8.50;;
12467;SDS011;57850;52.922;6.256;2023-07-09T14:34:57;9.52;;;8.25;;
12467;SDS011;57850;52.922;6.256;2023-07-09T14:37:23;11.38;;;8.60;;
12467;SDS011;57850;52.922;6.256;2023-07-09T14:39:51;10.60;;;7.75;;
12467;SDS011;57850;52.922;6.256;2023-07-09T14:42:18;10.85;;;7.00;;
12467;SDS011;57850;52.922;6.256;2023-07-09T14:44:44;12.13;;;8.45;;
12467;SDS011;57850;52.922;6.256;2023-07-09T14:47:12;9.43;;;8.02;;